Time;durP1;ratioP1;P1;durP2;ratioP2;P2;SDS_P1;SDS_P2;PMS_P1;PMS_P2;Temp;Humidity;BMP_temperature;BMP_pressure;BME280_temperature;BME280_humidity;BME280_pressure;Samples;Min_cycle;Max_cycle;Signal;HPM_P1;HPM_P2
2021/01/02 00:00:20;;;;;;;31.70;15.80;;;;;;;2.51;69.95;96067.22;5073255;28;20995;-65
2021/01/02 00:02:46;;;;;;;26.30;14.77;;;;;;;2.72;69.75;96067.16;5072694;28;20214;-66
2021/01/02 00:05:16;;;;;;;27.30;14.90;;;;;;;2.79;69.52;96063.09;5072226;28;20425;-66
2021/01/02 00:08:06;;;;;;;21.00;13.87;;;;;;;3.12;68.70;96068.06;5067825;28;20444;-66
2021/01/02 00:10:44;;;;;;;28.13;14.40;;;;;;;3.25;68.46;96067.84;5061301;28;20428;-67
2021/01/02 00:13:16;;;;;;;24.10;14.20;;;;;;;3.34;68.00;96072.19;5072445;28;21282;-68
2021/01/02 00:16:01;;;;;;;23.20;14.20;;;;;;;3.26;67.27;96065.09;5071208;28;20516;-66
2021/01/02 00:18:36;;;;;;;23.90;13.47;;;;;;;3.26;66.76;96069.47;5059335;28;20783;-64
2021/01/02 00:21:24;;;;;;;22.33;15.10;;;;;;;3.25;67.19;96073.03;5068538;28;20433;-66
2021/01/02 00:24:15;;;;;;;25.20;14.43;;;;;;;3.31;67.21;96064.69;5070475;28;20532;-66
2021/01/02 00:26:45;;;;;;;17.60;11.70;;;;;;;3.44;66.45;96062.66;5072734;28;20417;-66
2021/01/02 00:29:22;;;;;;;18.73;11.60;;;;;;;3.16;67.05;96070.25;5054131;28;20589;-67
2021/01/02 00:32:22;;;;;;;21.77;13.30;;;;;;;3.08;67.16;96077.88;5070770;28;20939;-65
2021/01/02 00:34:50;;;;;;;22.23;12.23;;;;;;;3.48;66.84;96068.38;5055770;28;20519;-65
2021/01/02 00:37:22;;;;;;;21.23;14.30;;;;;;;3.42;66.49;96064.56;5071832;28;20431;-68
2021/01/02 00:40:04;;;;;;;20.60;12.30;;;;;;;3.14;66.80;96066.19;5070332;28;20421;-65
2021/01/02 00:42:32;;;;;;;19.40;11.90;;;;;;;2.99;67.28;96065.75;5070162;28;20479;-68
2021/01/02 00:45:01;;;;;;;22.70;13.53;;;;;;;3.31;66.99;96069.88;5063204;28;20485;-66
2021/01/02 00:47:27;;;;;;;25.00;13.87;;;;;;;3.10;67.50;96065.63;5072041;28;20504;-66
2021/01/02 00:49:58;;;;;;;21.13;13.50;;;;;;;3.03;67.83;96072.28;5072139;28;20500;-67
2021/01/02 00:52:45;;;;;;;24.33;15.10;;;;;;;3.20;67.62;96069.06;5067851;28;20448;-67
2021/01/02 00:55:22;;;;;;;21.50;13.80;;;;;;;3.32;66.68;96068.94;5062867;28;20562;-66
2021/01/02 00:58:00;;;;;;;26.17;15.00;;;;;;;3.44;66.53;96067.03;5067764;28;20424;-67
2021/01/02 01:00:29;;;;;;;21.90;14.30;;;;;;;3.12;66.96;96066.31;5070209;28;20426;-67
2021/01/02 01:03:20;;;;;;;20.33;13.40;;;;;;;3.22;67.62;96067.16;5069744;28;20507;-68
2021/01/02 01:05:47;;;;;;;20.97;13.40;;;;;;;2.94;67.98;96070.50;5071281;28;20419;-67
2021/01/02 01:08:15;;;;;;;19.80;12.03;;;;;;;3.20;67.57;96071.63;5067012;28;20531;-67
2021/01/02 01:10:41;;;;;;;19.73;12.67;;;;;;;3.20;67.09;96082.00;5069807;28;20479;-67
2021/01/02 01:13:28;;;;;;;21.00;12.63;;;;;;;3.44;66.39;96077.41;5071278;28;20457;-68
2021/01/02 01:15:54;;;;;;;28.00;13.27;;;;;;;3.27;66.84;96084.06;5067721;28;20189;-66
2021/01/02 01:18:34;;;;;;;21.90;13.67;;;;;;;3.49;67.04;96070.03;5076831;28;20420;-66
2021/01/02 01:21:01;;;;;;;21.10;13.10;;;;;;;3.52;66.64;96086.13;5080817;28;20413;-69
2021/01/02 01:23:35;;;;;;;23.17;13.87;;;;;;;3.60;66.37;96087.22;5073356;28;20936;-66
2021/01/02 01:26:30;;;;;;;19.70;13.10;;;;;;;3.74;66.23;96089.41;5072275;28;20424;-65
2021/01/02 01:28:57;;;;;;;20.10;12.70;;;;;;;3.69;66.26;96086.41;5070562;28;20457;-65
2021/01/02 01:31:23;;;;;;;23.20;12.70;;;;;;;3.77;65.92;96094.31;5072644;28;20431;-65
2021/01/02 01:33:51;;;;;;;19.93;11.50;;;;;;;3.63;66.58;96090.34;5071267;28;20592;-66
2021/01/02 01:36:20;;;;;;;19.80;12.10;;;;;;;3.81;66.13;96103.44;5071935;28;20894;-66
2021/01/02 01:38:56;;;;;;;21.63;12.60;;;;;;;3.76;66.20;96099.63;5071843;28;20429;-68
2021/01/02 01:41:35;;;;;;;20.57;13.40;;;;;;;3.79;65.84;96097.56;5072648;28;20515;-67
2021/01/02 01:44:10;;;;;;;16.80;11.80;;;;;;;3.83;65.19;96093.75;5075496;28;20460;-66
2021/01/02 01:46:50;;;;;;;19.40;12.43;;;;;;;3.94;64.85;96099.75;5073817;28;20473;-66
2021/01/02 01:49:31;;;;;;;20.33;12.30;;;;;;;3.88;64.62;96092.53;5061193;28;20482;-66
2021/01/02 01:52:02;;;;;;;19.10;11.83;;;;;;;3.97;65.19;96100.28;5071406;28;20455;-66
2021/01/02 01:54:59;;;;;;;16.33;12.00;;;;;;;4.04;65.16;96097.97;5075554;28;20479;-66
2021/01/02 01:57:28;;;;;;;18.70;12.43;;;;;;;4.17;64.78;96095.09;5064176;28;20945;-67
2021/01/02 01:59:57;;;;;;;16.77;11.97;;;;;;;4.18;64.74;96093.31;5075685;28;20511;-65
2021/01/02 02:02:44;;;;;;;20.03;12.07;;;;;;;4.23;64.52;96096.31;5074122;28;20911;-65
2021/01/02 02:05:18;;;;;;;18.40;11.57;;;;;;;4.25;64.24;96091.81;5066287;28;20413;-67
2021/01/02 02:08:03;;;;;;;18.00;12.23;;;;;;;4.23;63.82;96085.94;5070120;28;20520;-68
2021/01/02 02:10:33;;;;;;;17.10;11.60;;;;;;;4.24;63.52;96084.97;5073282;28;20515;-66
2021/01/02 02:13:21;;;;;;;14.70;10.87;;;;;;;4.23;63.84;96084.13;5075318;28;20448;-67
2021/01/02 02:15:55;;;;;;;16.83;11.90;;;;;;;4.25;63.74;96081.44;5075074;28;20432;-67
2021/01/02 02:18:26;;;;;;;18.87;13.10;;;;;;;4.22;63.13;96082.50;5057646;28;20435;-69
2021/01/02 02:20:56;;;;;;;19.30;12.47;;;;;;;4.14;63.57;96091.00;5071230;28;20503;-67
2021/01/02 02:23:35;;;;;;;20.83;13.30;;;;;;;4.26;63.43;96083.88;5075201;28;20455;-66
2021/01/02 02:26:07;;;;;;;20.40;14.07;;;;;;;4.24;63.58;96090.16;5073640;28;20428;-67
2021/01/02 02:28:42;;;;;;;19.73;13.50;;;;;;;4.18;63.57;96088.94;5074826;28;21020;-65
2021/01/02 02:31:08;;;;;;;21.97;14.17;;;;;;;4.27;63.44;96084.72;5057406;28;20432;-66
2021/01/02 02:33:37;;;;;;;18.73;13.43;;;;;;;4.22;63.43;96086.88;5074799;28;20495;-66
2021/01/02 02:36:04;;;;;;;21.70;14.53;;;;;;;4.19;64.03;96089.75;5073837;28;20560;-67
2021/01/02 02:38:37;;;;;;;21.80;14.63;;;;;;;4.19;63.78;96097.53;5074235;28;20615;-67
2021/01/02 02:41:04;;;;;;;20.13;14.07;;;;;;;4.16;64.19;96098.63;5055211;28;20426;-66
2021/01/02 02:43:30;;;;;;;19.93;12.90;;;;;;;4.19;64.33;96092.34;5074794;28;20555;-68
2021/01/02 02:45:56;;;;;;;22.23;14.30;;;;;;;3.79;65.11;96091.59;5073109;28;20828;-66
2021/01/02 02:48:23;;;;;;;22.40;12.90;;;;;;;3.90;64.80;96093.22;5072216;28;20468;-67
2021/01/02 02:50:53;;;;;;;21.00;13.53;;;;;;;3.87;64.62;96088.31;5067930;28;20182;-67
2021/01/02 02:53:18;;;;;;;21.10;13.83;;;;;;;3.84;65.06;96087.63;5074344;28;20445;-67
2021/01/02 02:55:45;;;;;;;22.73;14.30;;;;;;;3.85;64.76;96085.84;5073465;28;20450;-67
2021/01/02 02:58:11;;;;;;;20.57;14.17;;;;;;;3.88;65.10;96084.75;5073212;28;20343;-66
2021/01/02 03:00:38;;;;;;;21.20;14.20;;;;;;;3.98;64.86;96101.94;5072516;28;20429;-67
2021/01/02 03:03:08;;;;;;;21.90;14.77;;;;;;;3.71;65.93;96094.06;5073957;28;20955;-65
2021/01/02 03:05:34;;;;;;;21.37;13.57;;;;;;;3.66;65.83;96087.50;5056467;28;20781;-66
2021/01/02 03:08:00;;;;;;;25.93;15.67;;;;;;;3.57;66.79;96097.84;5070806;28;20439;-67
2021/01/02 03:10:26;;;;;;;22.70;14.70;;;;;;;3.56;66.81;96104.81;5066751;28;20428;-65
2021/01/02 03:12:53;;;;;;;24.17;14.80;;;;;;;3.21;68.15;96096.59;5072749;28;20647;-64
2021/01/02 03:15:20;;;;;;;22.93;15.27;;;;;;;3.47;67.36;96093.47;5072959;28;20500;-67
2021/01/02 03:17:46;;;;;;;23.80;14.87;;;;;;;3.50;67.28;96100.16;5073688;28;20481;-66
2021/01/02 03:20:13;;;;;;;25.10;15.70;;;;;;;3.67;67.03;96101.25;5073205;28;20432;-66
2021/01/02 03:22:42;;;;;;;25.53;15.83;;;;;;;3.79;66.89;96094.97;5069992;28;20452;-65
2021/01/02 03:25:11;;;;;;;28.27;16.60;;;;;;;3.29;68.26;96100.25;5064991;28;20421;-65
2021/01/02 03:27:38;;;;;;;28.83;16.73;;;;;;;3.48;67.73;96095.13;5072680;28;20425;-68
2021/01/02 03:30:07;;;;;;;26.30;17.00;;;;;;;3.33;68.22;96086.09;5073696;28;20464;-67
2021/01/02 03:32:34;;;;;;;26.47;16.57;;;;;;;3.32;68.39;96090.47;5074982;28;20452;-67
2021/01/02 03:35:01;;;;;;;24.70;15.83;;;;;;;3.50;67.66;96090.63;5074721;28;20465;-67
2021/01/02 03:37:27;;;;;;;27.30;17.00;;;;;;;3.31;67.96;96082.81;5074253;28;20421;-66
2021/01/02 03:39:52;;;;;;;26.10;17.80;;;;;;;3.00;69.67;96082.91;5067158;28;20445;-67
2021/01/02 03:42:18;;;;;;;27.63;18.43;;;;;;;3.21;69.38;96086.22;5070288;28;20420;-66
2021/01/02 03:44:44;;;;;;;27.27;17.53;;;;;;;3.22;69.33;96080.09;5064583;28;20215;-66
2021/01/02 03:47:10;;;;;;;32.07;19.33;;;;;;;3.14;69.20;96079.97;5073810;28;20186;-66
2021/01/02 03:49:36;;;;;;;28.60;18.57;;;;;;;3.38;68.94;96078.75;5073639;28;20218;-65
2021/01/02 03:52:04;;;;;;;30.57;18.90;;;;;;;3.28;69.28;96075.31;5070293;28;20475;-66
2021/01/02 03:54:30;;;;;;;31.43;19.10;;;;;;;3.40;68.81;96076.03;5073704;28;20480;-66
2021/01/02 03:56:56;;;;;;;30.67;19.17;;;;;;;3.31;69.24;96068.13;5064450;28;20422;-65
2021/01/02 03:59:22;;;;;;;29.43;18.03;;;;;;;3.33;69.00;96076.56;5063627;28;20455;-67
2021/01/02 04:02:00;;;;;;;30.77;19.50;;;;;;;3.38;68.83;96068.41;5071483;28;20213;-66
2021/01/02 04:04:27;;;;;;;30.90;18.10;;;;;;;3.25;69.03;96068.66;5071658;28;20443;-66
2021/01/02 04:06:53;;;;;;;32.90;19.40;;;;;;;2.88;70.82;96066.66;5071467;28;20455;-66
2021/01/02 04:09:22;;;;;;;33.40;18.90;;;;;;;3.12;70.37;96063.72;5068808;28;20459;-67
2021/01/02 04:11:49;;;;;;;34.77;20.13;;;;;;;3.11;70.17;96072.44;5071191;28;20927;-65
2021/01/02 04:14:15;;;;;;;34.23;21.10;;;;;;;2.43;72.34;96067.88;5072320;28;20445;-67
2021/01/02 04:16:41;;;;;;;33.60;19.77;;;;;;;2.89;72.01;96073.47;5072952;28;20428;-67
2021/01/02 04:19:08;;;;;;;31.07;19.60;;;;;;;3.13;70.50;96078.31;5071041;28;20474;-67
2021/01/02 04:21:34;;;;;;;32.97;18.57;;;;;;;3.05;70.82;96072.97;5068474;28;20482;-69
2021/01/02 04:24:01;;;;;;;31.77;20.00;;;;;;;2.98;71.18;96071.88;5071153;28;20464;-66
2021/01/02 04:26:27;;;;;;;36.87;21.40;;;;;;;3.07;70.41;96081.41;5072508;28;20962;-67
2021/01/02 04:28:53;;;;;;;34.73;19.90;;;;;;;3.08;70.71;96077.88;5070920;28;21073;-67
2021/01/02 04:31:19;;;;;;;34.53;19.57;;;;;;;3.23;70.52;96073.97;5067308;28;20475;-67
2021/01/02 04:33:45;;;;;;;32.90;20.00;;;;;;;3.37;69.73;96072.75;5078721;28;20283;-67
2021/01/02 04:36:15;;;;;;;37.07;21.57;;;;;;;3.49;69.38;96086.41;5072692;28;20424;-66
2021/01/02 04:38:42;;;;;;;35.77;21.17;;;;;;;3.60;68.98;96082.03;5057342;28;20484;-70
2021/01/02 04:41:08;;;;;;;36.73;20.93;;;;;;;3.66;68.61;96084.06;5052982;28;20424;-67
2021/01/02 04:43:34;;;;;;;31.47;19.73;;;;;;;3.61;68.69;96081.88;5056530;28;20579;-66
2021/01/02 04:46:03;;;;;;;36.67;21.60;;;;;;;3.34;68.99;96091.13;5051730;28;20425;-66
2021/01/02 04:48:28;;;;;;;33.47;19.90;;;;;;;3.35;70.01;96094.56;5056057;28;20464;-66
2021/01/02 04:50:55;;;;;;;33.73;21.00;;;;;;;3.62;68.82;96080.94;5060308;28;20491;-67
2021/01/02 04:53:21;;;;;;;30.33;19.30;;;;;;;3.31;69.52;96091.44;5054520;28;20306;-67
2021/01/02 04:55:47;;;;;;;33.20;20.47;;;;;;;3.26;69.88;96091.00;5052429;28;20513;-66
2021/01/02 04:58:15;;;;;;;35.90;21.17;;;;;;;3.22;70.26;96084.44;5051944;28;20203;-66
2021/01/02 05:00:41;;;;;;;37.07;21.30;;;;;;;3.50;69.99;96082.84;5058972;28;20499;-66
2021/01/02 05:03:07;;;;;;;33.20;20.40;;;;;;;3.17;70.00;96089.22;5056316;28;20445;-67
2021/01/02 05:05:34;;;;;;;34.40;20.10;;;;;;;2.93;70.90;96082.63;5049903;28;20442;-67
2021/01/02 05:08:01;;;;;;;36.17;19.93;;;;;;;2.99;71.29;96084.66;5051210;28;20432;-67
2021/01/02 05:10:27;;;;;;;38.80;22.80;;;;;;;3.19;71.08;96090.72;5045357;28;20440;-66
2021/01/02 05:13:07;;;;;;;33.60;20.77;;;;;;;3.46;70.08;96097.03;5051239;28;20433;-66
2021/01/02 05:15:32;;;;;;;36.80;21.00;;;;;;;3.59;69.45;96101.13;5049617;28;20187;-66
2021/01/02 05:17:58;;;;;;;41.60;22.60;;;;;;;3.66;69.35;96107.38;5051332;28;20998;-67
2021/01/02 05:20:24;;;;;;;42.80;23.03;;;;;;;3.79;69.06;96110.53;5051508;28;20190;-66
2021/01/02 05:22:50;;;;;;;39.77;22.00;;;;;;;3.47;69.51;96105.59;5050369;28;20979;-65
2021/01/02 05:25:18;;;;;;;36.67;21.47;;;;;;;3.31;69.73;96099.19;5050883;28;20207;-66
2021/01/02 05:27:48;;;;;;;38.70;20.90;;;;;;;3.19;70.57;96105.44;5050322;28;20278;-66
2021/01/02 05:30:26;;;;;;;38.87;19.53;;;;;;;3.43;70.73;96092.09;5043530;28;20494;-67
2021/01/02 05:33:05;;;;;;;41.03;22.00;;;;;;;3.09;71.37;96097.66;5049192;28;20532;-66
2021/01/02 05:35:36;;;;;;;45.53;23.17;;;;;;;3.33;70.62;96094.72;5051554;28;20421;-67
2021/01/02 05:38:12;;;;;;;39.80;22.20;;;;;;;2.87;72.15;96089.16;5049856;28;20428;-67
2021/01/02 05:40:39;;;;;;;41.63;21.10;;;;;;;3.26;71.01;96101.34;5045873;28;20436;-68
2021/01/02 05:43:05;;;;;;;45.40;23.87;;;;;;;2.97;72.25;96098.69;5051632;28;20437;-67
2021/01/02 05:45:31;;;;;;;43.97;23.20;;;;;;;3.32;71.00;96100.00;5051571;28;20486;-65
2021/01/02 05:48:11;;;;;;;42.33;22.57;;;;;;;3.33;71.24;96101.63;5051421;28;20187;-65
2021/01/02 05:51:02;;;;;;;45.07;21.80;;;;;;;3.47;71.03;96106.44;5053827;28;20433;-64
2021/01/02 05:53:33;;;;;;;43.40;21.90;;;;;;;3.67;70.34;96109.03;5048510;28;20457;-68
2021/01/02 05:56:10;;;;;;;38.87;20.43;;;;;;;3.69;70.37;96110.56;5052092;28;20750;-66
2021/01/02 05:58:46;;;;;;;48.27;23.30;;;;;;;3.80;69.81;96101.00;5050883;28;20802;-67
2021/01/02 06:01:18;;;;;;;48.13;23.43;;;;;;;3.73;69.85;96103.31;5010660;28;20435;-67
2021/01/02 06:03:48;;;;;;;46.03;22.87;;;;;;;3.87;69.52;96103.84;5051181;28;20869;-67
2021/01/02 06:06:15;;;;;;;42.73;21.37;;;;;;;3.78;69.40;96097.72;5051327;28;20447;-68
2021/01/02 06:08:46;;;;;;;44.47;22.07;;;;;;;3.60;69.72;96100.19;5051920;28;20457;-67
2021/01/02 06:11:14;;;;;;;43.13;21.90;;;;;;;3.33;70.44;96091.28;5043868;28;20430;-66
2021/01/02 06:13:45;;;;;;;42.13;21.70;;;;;;;3.27;71.08;96102.19;5050808;28;20449;-67
2021/01/02 06:16:10;;;;;;;50.40;24.13;;;;;;;2.51;73.02;96096.50;5041831;28;20429;-66
2021/01/02 06:18:38;;;;;;;46.40;22.50;;;;;;;3.25;71.25;96091.94;5051665;28;20468;-66
2021/01/02 06:21:06;;;;;;;39.20;21.00;;;;;;;3.27;71.48;96097.00;5050966;28;20270;-68
2021/01/02 06:23:34;;;;;;;43.93;22.10;;;;;;;3.29;70.98;96093.31;5053318;28;20976;-68
2021/01/02 06:26:00;;;;;;;41.87;20.73;;;;;;;3.54;70.51;96097.16;5052455;28;20542;-66
2021/01/02 06:28:26;;;;;;;40.90;20.63;;;;;;;3.16;71.28;96106.50;5055062;28;20449;-67
2021/01/02 06:31:10;;;;;;;43.77;21.30;;;;;;;3.55;70.55;96105.75;5054703;28;20417;-68
2021/01/02 06:33:36;;;;;;;44.97;21.00;;;;;;;3.68;69.83;96108.91;5055141;28;20206;-67
2021/01/02 06:36:02;;;;;;;47.00;20.83;;;;;;;3.71;69.84;96112.19;5053422;28;20516;-67
2021/01/02 06:38:29;;;;;;;46.63;21.20;;;;;;;3.61;70.16;96109.59;5054397;28;20434;-68
2021/01/02 06:40:56;;;;;;;57.10;22.20;;;;;;;3.07;71.09;96102.97;5047496;28;20448;-67
2021/01/02 06:43:24;;;;;;;49.13;20.43;;;;;;;2.97;72.15;96091.75;5054629;28;20453;-68
2021/01/02 06:45:52;;;;;;;50.47;20.90;;;;;;;2.72;73.26;96093.03;5061396;28;20429;-68
2021/01/02 06:48:27;;;;;;;49.70;20.40;;;;;;;3.09;71.81;96094.25;5057437;28;20533;-68
2021/01/02 06:50:53;;;;;;;44.47;21.30;;;;;;;2.68;73.51;96096.81;5069504;28;20452;-68
2021/01/02 06:53:26;;;;;;;43.80;20.17;;;;;;;3.09;72.85;96100.22;5074225;28;20448;-66
2021/01/02 06:55:59;;;;;;;46.67;21.80;;;;;;;3.08;72.59;96103.78;5073129;28;20436;-66
2021/01/02 06:58:36;;;;;;;48.30;21.73;;;;;;;3.38;70.83;96112.44;5073556;28;20983;-67
2021/01/02 07:01:07;;;;;;;44.10;20.07;;;;;;;3.37;71.01;96110.78;5074060;28;20503;-67
2021/01/02 07:03:38;;;;;;;41.87;19.40;;;;;;;3.43;70.85;96110.25;5067917;28;20448;-66
2021/01/02 07:06:20;;;;;;;44.10;20.30;;;;;;;3.46;71.17;96117.75;5074261;28;20486;-68
2021/01/02 07:08:59;;;;;;;38.50;18.80;;;;;;;3.44;70.02;96118.84;5070687;28;20970;-67
2021/01/02 07:11:42;;;;;;;39.60;19.20;;;;;;;3.31;70.45;96125.09;5073838;28;20425;-68
2021/01/02 07:14:17;;;;;;;40.00;19.87;;;;;;;3.30;70.80;96136.41;5072591;28;20603;-68
2021/01/02 07:16:55;;;;;;;41.30;21.40;;;;;;;3.08;70.76;96127.06;5074304;28;20451;-68
2021/01/02 07:19:23;;;;;;;35.83;17.33;;;;;;;3.14;71.11;96131.75;5058199;28;20524;-67
2021/01/02 07:22:10;;;;;;;39.10;19.30;;;;;;;2.39;73.37;96128.56;5073919;28;20437;-66
2021/01/02 07:25:00;;;;;;;48.43;20.10;;;;;;;2.41;74.09;96131.81;5073625;28;20522;-67
2021/01/02 07:27:44;;;;;;;42.27;19.50;;;;;;;2.69;73.30;96132.94;5074224;28;20461;-68
2021/01/02 07:30:11;;;;;;;38.37;18.83;;;;;;;3.06;72.43;96134.97;5072689;28;20463;-68
2021/01/02 07:32:40;;;;;;;39.97;20.10;;;;;;;2.85;72.29;96124.69;5072933;28;20444;-69
2021/01/02 07:35:13;;;;;;;40.33;20.07;;;;;;;2.53;73.42;96125.63;5073877;28;20788;-68
2021/01/02 07:37:46;;;;;;;39.20;19.53;;;;;;;2.61;73.66;96128.41;5054889;28;20528;-67
2021/01/02 07:40:13;;;;;;;43.30;21.50;;;;;;;2.99;72.64;96127.88;5073120;28;20466;-67
2021/01/02 07:42:42;;;;;;;46.50;20.77;;;;;;;3.15;72.20;96120.41;5074510;28;20445;-68
2021/01/02 07:45:12;;;;;;;44.30;20.23;;;;;;;3.07;71.72;96122.84;5072877;28;20577;-69
2021/01/02 07:47:45;;;;;;;44.60;21.00;;;;;;;2.57;73.42;96119.25;5074544;28;20765;-69
2021/01/02 07:50:13;;;;;;;39.40;18.97;;;;;;;3.05;72.38;96133.34;5058344;28;21045;-68
2021/01/02 07:52:58;;;;;;;39.43;20.00;;;;;;;3.26;71.33;96134.22;5073510;28;20492;-68
2021/01/02 07:55:28;;;;;;;44.53;19.07;;;;;;;3.33;71.53;96130.97;5073201;28;20806;-67
2021/01/02 07:57:55;;;;;;;39.77;19.70;;;;;;;3.34;70.86;96132.56;5072978;28;20923;-67
2021/01/02 08:00:22;;;;;;;41.30;19.40;;;;;;;3.47;70.78;96132.34;5073117;28;20444;-69
2021/01/02 08:02:48;;;;;;;43.07;20.90;;;;;;;2.46;73.73;96134.84;5072560;28;20445;-67
2021/01/02 08:05:24;;;;;;;40.70;19.23;;;;;;;3.05;72.08;96146.28;5055573;28;20460;-68
2021/01/02 08:07:55;;;;;;;46.17;21.00;;;;;;;3.28;71.15;96151.25;5069199;28;20936;-66
2021/01/02 08:10:21;;;;;;;52.77;20.87;;;;;;;2.76;72.77;96136.63;5072115;28;20774;-68
2021/01/02 08:12:49;;;;;;;47.00;22.00;;;;;;;2.80;73.05;96138.97;5072945;28;20440;-67
2021/01/02 08:15:25;;;;;;;51.23;20.70;;;;;;;2.52;73.53;96134.31;5071639;28;20186;-68
2021/01/02 08:17:51;;;;;;;45.57;21.80;;;;;;;2.95;72.91;96134.25;5055298;28;20416;-68
2021/01/02 08:20:16;;;;;;;51.03;23.20;;;;;;;2.51;73.03;96130.13;5058976;28;20792;-67
2021/01/02 08:22:42;;;;;;;45.07;21.00;;;;;;;2.51;74.25;96129.28;5063950;28;20210;-67
2021/01/02 08:25:15;;;;;;;45.27;21.97;;;;;;;3.06;72.82;96131.56;5072807;28;20225;-69
2021/01/02 08:27:42;;;;;;;49.67;21.23;;;;;;;3.12;71.91;96130.22;5071182;28;20215;-67
2021/01/02 08:30:09;;;;;;;40.87;20.93;;;;;;;2.79;72.65;96134.75;5072337;28;20460;-67
2021/01/02 08:32:40;;;;;;;44.57;20.90;;;;;;;3.13;71.89;96137.88;5055125;28;20566;-67
2021/01/02 08:35:16;;;;;;;46.13;21.97;;;;;;;3.29;71.64;96137.34;5072704;28;20784;-67
2021/01/02 08:37:43;;;;;;;44.50;19.47;;;;;;;3.30;70.54;96127.81;5072674;28;20734;-67
2021/01/02 08:40:11;;;;;;;40.80;20.50;;;;;;;2.96;71.86;96130.72;5071912;28;20523;-67
2021/01/02 08:42:38;;;;;;;43.13;21.13;;;;;;;3.22;70.80;96128.47;5070602;28;20445;-68
2021/01/02 08:45:06;;;;;;;40.13;21.07;;;;;;;3.21;71.11;96125.06;5070808;28;20450;-66
2021/01/02 08:47:32;;;;;;;42.10;21.23;;;;;;;2.68;72.59;96123.53;5070429;28;20420;-67
2021/01/02 08:50:10;;;;;;;40.40;19.87;;;;;;;2.66;72.87;96125.44;5047273;28;20457;-68
2021/01/02 08:52:36;;;;;;;39.77;19.83;;;;;;;2.39;73.28;96125.97;5071137;28;20217;-67
2021/01/02 08:55:28;;;;;;;37.70;18.83;;;;;;;2.68;72.85;96122.69;5072349;28;20433;-66
2021/01/02 08:57:54;;;;;;;35.50;17.77;;;;;;;2.44;73.41;96129.81;5070604;28;20436;-68
2021/01/02 09:00:30;;;;;;;38.33;20.00;;;;;;;2.69;72.35;96132.09;5071947;28;20424;-65
2021/01/02 09:02:57;;;;;;;42.60;20.63;;;;;;;2.44;73.63;96131.56;5063191;28;20452;-68
2021/01/02 09:05:26;;;;;;;39.07;19.33;;;;;;;2.69;73.11;96138.13;5063764;28;20435;-68
2021/01/02 09:07:57;;;;;;;34.77;18.83;;;;;;;2.23;73.94;96136.75;5068024;28;20426;-68
2021/01/02 09:10:28;;;;;;;36.57;19.13;;;;;;;2.57;73.92;96134.78;5071887;28;20428;-68
2021/01/02 09:13:03;;;;;;;42.97;21.47;;;;;;;2.19;74.87;96136.19;5071368;28;20452;-66
2021/01/02 09:15:51;;;;;;;41.60;20.93;;;;;;;2.32;74.80;96142.94;5057307;28;20432;-66
2021/01/02 09:18:29;;;;;;;40.40;20.80;;;;;;;2.20;74.72;96140.41;5064155;28;20446;-67
2021/01/02 09:21:10;;;;;;;39.40;20.17;;;;;;;2.98;72.84;96139.97;5065866;28;20424;-66
2021/01/02 09:23:40;;;;;;;44.37;21.83;;;;;;;3.07;72.14;96146.16;5070438;28;20436;-66
2021/01/02 09:26:32;;;;;;;40.27;19.90;;;;;;;2.38;73.77;96147.63;5070988;28;20485;-66
2021/01/02 09:28:59;;;;;;;36.00;20.63;;;;;;;2.60;73.26;96150.03;5070476;28;20456;-65
2021/01/02 09:31:25;;;;;;;46.07;19.90;;;;;;;2.97;72.08;96142.72;5073071;28;20456;-68
2021/01/02 09:33:52;;;;;;;42.87;21.20;;;;;;;2.60;73.04;96146.63;5073147;28;20502;-66
2021/01/02 09:36:19;;;;;;;39.03;21.27;;;;;;;2.83;72.00;96146.47;5073562;28;20427;-65
2021/01/02 09:38:45;;;;;;;38.67;20.70;;;;;;;2.56;72.84;96150.44;5061261;28;20463;-68
2021/01/02 09:41:14;;;;;;;41.93;21.00;;;;;;;2.48;73.70;96148.47;5072330;28;20491;-67
2021/01/02 09:43:41;;;;;;;37.40;20.30;;;;;;;2.34;74.93;96148.81;5074378;28;20552;-70
2021/01/02 09:46:12;;;;;;;43.20;21.20;;;;;;;2.68;72.90;96148.56;5071587;28;20444;-66
2021/01/02 09:48:40;;;;;;;40.67;20.57;;;;;;;3.22;71.33;96162.97;5055954;28;20569;-67
2021/01/02 09:51:06;;;;;;;43.27;21.60;;;;;;;3.19;71.17;96162.41;5056820;28;20436;-66
2021/01/02 09:53:32;;;;;;;39.30;20.60;;;;;;;3.26;70.72;96166.09;5062967;28;20512;-67
2021/01/02 09:55:58;;;;;;;49.00;21.80;;;;;;;3.44;70.18;96171.47;5063422;28;20186;-66
2021/01/02 09:58:23;;;;;;;34.30;19.40;;;;;;;3.44;70.05;96168.88;5070038;28;20239;-67
2021/01/02 10:00:49;;;;;;;43.97;22.40;;;;;;;3.64;69.24;96179.28;5067432;28;20201;-70
2021/01/02 10:03:15;;;;;;;37.80;20.63;;;;;;;2.73;71.54;96172.31;5074147;28;20228;-67
2021/01/02 10:05:40;;;;;;;42.23;20.13;;;;;;;2.77;71.40;96173.69;5067632;28;20182;-66
2021/01/02 10:08:07;;;;;;;37.50;20.67;;;;;;;2.73;71.56;96169.72;5073830;28;20251;-68
2021/01/02 10:10:33;;;;;;;39.47;18.93;;;;;;;2.72;72.22;96166.28;5075554;28;20251;-66
2021/01/02 10:12:58;;;;;;;35.30;19.70;;;;;;;2.69;71.35;96161.41;5074641;28;20460;-66
2021/01/02 10:15:24;;;;;;;36.03;20.23;;;;;;;2.74;71.14;96163.59;5066788;28;20424;-67
2021/01/02 10:17:50;;;;;;;38.40;19.63;;;;;;;3.38;69.94;96153.88;5074982;28;20187;-66
2021/01/02 10:20:16;;;;;;;31.90;18.70;;;;;;;3.45;69.39;96156.75;5061175;28;20894;-67
2021/01/02 10:22:42;;;;;;;38.50;20.73;;;;;;;2.94;70.31;96158.50;5073096;28;20457;-69
2021/01/02 10:25:09;;;;;;;36.83;19.47;;;;;;;3.39;68.61;96152.94;5073943;28;20443;-70
2021/01/02 10:27:35;;;;;;;30.87;17.60;;;;;;;3.68;68.34;96152.13;5073905;28;20600;-70
2021/01/02 10:30:02;;;;;;;35.90;20.17;;;;;;;3.52;67.56;96148.31;5064981;28;20448;-71
2021/01/02 10:32:29;;;;;;;33.73;18.40;;;;;;;2.97;69.75;96137.53;5075051;28;20256;-71
2021/01/02 10:34:55;;;;;;;31.87;18.57;;;;;;;3.44;68.68;96134.38;5074737;28;20435;-71
2021/01/02 10:37:25;;;;;;;33.20;18.73;;;;;;;3.47;68.34;96131.50;5069081;28;20491;-70
2021/01/02 10:39:51;;;;;;;29.93;17.87;;;;;;;3.41;67.83;96127.69;5074679;28;20412;-68
2021/01/02 10:42:25;;;;;;;33.47;19.53;;;;;;;2.91;69.14;96131.09;5064160;28;20485;-68
2021/01/02 10:44:50;;;;;;;33.03;18.93;;;;;;;3.02;68.92;96122.44;5073125;28;20903;-67
2021/01/02 10:47:19;;;;;;;33.50;19.10;;;;;;;2.75;70.22;96122.06;5075816;28;20505;-71
2021/01/02 10:49:45;;;;;;;32.40;19.17;;;;;;;3.32;68.29;96121.56;5060273;28;20261;-68
2021/01/02 10:52:14;;;;;;;32.30;18.70;;;;;;;2.99;69.25;96110.56;5074654;28;20436;-68
2021/01/02 10:54:42;;;;;;;29.57;17.73;;;;;;;3.40;68.15;96104.50;5073804;28;20825;-70
2021/01/02 10:57:07;;;;;;;28.07;15.90;;;;;;;3.13;67.71;96101.63;5074323;28;20455;-71
2021/01/02 10:59:33;;;;;;;31.23;18.60;;;;;;;2.89;69.28;96105.38;5068187;28;20433;-71
2021/01/02 11:01:59;;;;;;;32.20;16.90;;;;;;;3.16;68.69;96100.53;5072574;28;20197;-68
2021/01/02 11:04:29;;;;;;;29.40;17.30;;;;;;;3.30;68.42;96096.72;5071318;28;20198;-68
2021/01/02 11:06:55;;;;;;;29.60;16.33;;;;;;;3.01;68.29;96093.13;5066652;28;20214;-71
2021/01/02 11:09:22;;;;;;;27.13;16.50;;;;;;;3.02;68.58;96081.03;5070103;28;20765;-69
2021/01/02 11:11:50;;;;;;;31.10;17.20;;;;;;;2.98;68.73;96085.63;5072394;28;20532;-67
2021/01/02 11:14:16;;;;;;;29.17;16.43;;;;;;;2.97;69.78;96078.00;5074591;28;20436;-68
2021/01/02 11:16:44;;;;;;;29.50;17.60;;;;;;;3.14;68.40;96086.88;5074420;28;20804;-67
2021/01/02 11:19:11;;;;;;;29.50;17.33;;;;;;;3.36;68.36;96075.47;5058714;28;20224;-67
2021/01/02 11:21:38;;;;;;;31.13;18.53;;;;;;;3.34;68.07;96073.00;5073287;28;20432;-68
2021/01/02 11:24:04;;;;;;;33.30;18.23;;;;;;;3.52;67.63;96059.41;5072878;28;20951;-68
2021/01/02 11:26:30;;;;;;;29.97;17.90;;;;;;;3.83;67.55;96057.47;5073361;28;20424;-69
2021/01/02 11:28:55;;;;;;;32.30;17.60;;;;;;;4.07;66.71;96047.63;5073027;28;20467;-67
2021/01/02 11:31:32;;;;;;;31.63;18.23;;;;;;;4.19;65.26;96049.09;5072963;28;20193;-67
2021/01/02 11:33:58;;;;;;;33.93;17.83;;;;;;;3.94;65.76;96058.28;5072854;28;20225;-70
2021/01/02 11:36:24;;;;;;;24.57;16.23;;;;;;;3.33;66.20;96062.78;5066639;28;20449;-67
2021/01/02 11:38:51;;;;;;;27.33;17.13;;;;;;;3.11;67.93;96072.44;5071658;28;20421;-69